Cyprus Cement — C6UP5 — position and weather

sailwx.info

Track history (hours):
 
Tides and Currents Weather Stations Pressure Air Temp Water Temp Dewpoint Dewpoint Depression Visibility Wind Speed Wind Dir Waves Ship Positions

Cyprus Cement

Last reported at 2015-Jul-30 13:31 UTC. Time now 2015-Jul-31 05:09 UTC.
Position N 55°35' E 015°17'.

Length 97 m; draft 7.2 m.

Type: Cargo ship. MMSI: 311988000.

Date/timePositionNaut miles runAvg speedWind from/ knotsBaromVisibWave heightAir tempDewpointWater temp
2015-Jul-30 13:31N 55°35' E 015°17'1111.8
2015-Jul-30 12:33N 55°30' E 014°59'1211.6
2015-Jul-30 11:34N 55°24' E 014°42'1111.0
2015-Jul-30 10:34N 55°16' E 014°29'1111.2
2015-Jul-30 09:34N 55°07' E 014°17'1110.9
2015-Jul-30 08:33N 55°00' E 014°02'1111.3
2015-Jul-30 07:33N 54°56' E 013°44'5611.0
2015-Jul-30 02:29N 54°32' E 012°17'9 9.9
2015-Jul-30 01:33N 54°24' E 012°08'1110.8
2015-Jul-30 00:33N 54°24' E 011°49'1111.0
2015-Jul-29 23:33N 54°29' E 011°32'1111.3
2015-Jul-29 22:33N 54°33' E 011°14'1110.6
2015-Jul-29 21:33N 54°34' E 010°56'1111.0
2015-Jul-29 20:34N 54°34' E 010°37'1111.2
2015-Jul-29 19:33N 54°30' E 010°19'10 9.8
2015-Jul-29 18:34N 54°22' E 010°09'2 1.6
2015-Jul-29 17:33N 54°22' E 010°06'7 7.4
2015-Jul-29 16:33N 54°21' E 009°54'7 7.0
2015-Jul-29 15:33N 54°19' E 009°43'7 7.5
2015-Jul-29 14:34N 54°13' E 009°35'8 8.4
2015-Jul-29 13:33N 54°09' E 009°22'8 7.6
2015-Jul-29 12:33N 54°02' E 009°18'8 7.9
2015-Jul-29 11:33N 53°55' E 009°11'3 2.7
2015-Jul-29 10:33N 53°53' E 009°08'1 0.9
2015-Jul-29 09:31N 53°53' E 009°06'0 0.0
2015-Jul-29 08:31N 53°53' E 009°06'2 1.9
2015-Jul-29 07:34N 53°52' E 009°03'1111.1
2015-Jul-29 06:34N 53°51' E 008°45'1211.7
2015-Jul-29 05:33N 53°58' E 008°29'1111.3
2015-Jul-29 04:33N 53°59' E 008°09'1212.0
2015-Jul-29 03:34N 53°57' E 007°49'1111.4
2015-Jul-29 02:34N 53°54' E 007°30'1111.0
2015-Jul-29 01:33N 53°52' E 007°12'1610.7
2015-Jul-29 00:04N 53°48' E 006°46'610.7
2015-Jul-28 23:33N 53°46' E 006°37'1010.1
2015-Jul-28 22:32N 53°41' E 006°23'9 9.1
2015-Jul-28 21:33N 53°36' E 006°35'1211.8
2015-Jul-28 20:34N 53°28' E 006°50'2 1.6
2015-Jul-28 19:29N 53°27' E 006°51'0 0.0
2015-Jul-28 18:32N 53°27' E 006°51'0 0.0
2015-Jul-28 17:32N 53°27' E 006°51'0 0.0
2015-Jul-28 16:32N 53°27' E 006°51'0 0.0
2015-Jul-28 15:32N 53°27' E 006°51'0 0.0
2015-Jul-28 14:32N 53°27' E 006°51'0 0.0
2015-Jul-28 13:32N 53°27' E 006°51'0 0.0
2015-Jul-28 12:32N 53°27' E 006°51'0 0.0
2015-Jul-28 11:32N 53°27' E 006°51'0 0.0
2015-Jul-28 10:32N 53°27' E 006°51'0 0.0
2015-Jul-28 09:29N 53°27' E 006°51'0 0.0
2015-Jul-28 08:32N 53°27' E 006°51'0 0.0
2015-Jul-28 07:29N 53°27' E 006°51'0 0.0
2015-Jul-28 06:29N 53°27' E 006°51'0 0.0
2015-Jul-28 05:32N 53°27' E 006°51'0 0.0
2015-Jul-28 04:32N 53°27' E 006°51'0 0.0
2015-Jul-28 03:26N 53°27' E 006°51'0 0.0
2015-Jul-28 02:32N 53°27' E 006°51'0 0.0
2015-Jul-28 01:29N 53°27' E 006°51'0 0.0
2015-Jul-28 00:32N 53°27' E 006°51'0 0.0
2015-Jul-27 23:32N 53°27' E 006°51'0 0.0
2015-Jul-27 22:32N 53°27' E 006°51'0 0.0
2015-Jul-27 21:29N 53°27' E 006°51'0 0.4
2015-Jul-27 20:34N 53°27' E 006°51'3 3.2
2015-Jul-27 19:33N 53°29' E 006°48'0 0.0
2015-Jul-27 18:33N 53°29' E 006°48'0 0.0
2015-Jul-27 17:33N 53°29' E 006°48'0 0.0
2015-Jul-27 16:33N 53°29' E 006°48'0 0.0
2015-Jul-27 15:33N 53°29' E 006°48'0 0.0
2015-Jul-27 14:30N 53°29' E 006°48'0 0.0
2015-Jul-27 13:33N 53°29' E 006°48'0 0.1
2015-Jul-27 12:33N 53°29' E 006°48'0 0.1
2015-Jul-27 11:33N 53°29' E 006°48'0 0.0
2015-Jul-27 10:33N 53°29' E 006°48'0 0.0
2015-Jul-27 09:33N 53°29' E 006°48'0 0.0
2015-Jul-27 08:33N 53°29' E 006°48'0 0.0
2015-Jul-27 07:33N 53°29' E 006°48'0 0.0
2015-Jul-27 06:33N 53°29' E 006°48'0 0.1
2015-Jul-27 05:33N 53°29' E 006°48'0 0.0
2015-Jul-27 04:33N 53°29' E 006°48'0 0.0
2015-Jul-27 03:33N 53°29' E 006°48'0 0.0
2015-Jul-27 02:33N 53°29' E 006°48'0 0.0
2015-Jul-27 01:33N 53°29' E 006°48'0 0.1
2015-Jul-27 00:33N 53°29' E 006°48'0 0.1
2015-Jul-26 23:33N 53°29' E 006°48'0 0.0
2015-Jul-26 22:33N 53°29' E 006°48'0 0.0
2015-Jul-26 21:33N 53°29' E 006°48'0 0.0
2015-Jul-26 20:33N 53°29' E 006°48'0 0.0
2015-Jul-26 19:33N 53°29' E 006°48'0 0.1
2015-Jul-26 18:33N 53°29' E 006°48'1 1.0
2015-Jul-26 17:34N 53°30' E 006°48'9 8.7
2015-Jul-26 16:33N 53°36' E 006°36'7 6.7
2015-Jul-26 15:33N 53°37' E 006°25'30 9.2
2015-Jul-26 12:17N 53°56' E 007°05'3 4.0
2015-Jul-26 11:34N 53°57' E 007°09'1111.4
2015-Jul-26 10:34N 53°60' E 007°28'1110.8
2015-Jul-26 09:33N 54°02' E 007°46'10 9.9
2015-Jul-26 08:33N 54°01' E 008°03'1211.0
2015-Jul-26 07:29N 53°59' E 008°23'1010.8
2015-Jul-26 06:34N 53°57' E 008°39'10 9.7
2015-Jul-26 05:33N 53°50' E 008°52'1010.1
2015-Jul-26 04:33N 53°53' E 009°09'3 2.7
2015-Jul-26 03:33N 53°55' E 009°12'8 8.3
2015-Jul-26 02:33N 54°03' E 009°18'8 7.9
2015-Jul-26 01:33N 54°10' E 009°24'8 8.4
2015-Jul-26 00:33N 54°14' E 009°36'7 7.2
2015-Jul-25 23:33N 54°20' E 009°44'7 7.4
2015-Jul-25 22:34N 54°20' E 009°56'7 7.2
2015-Jul-25 21:33N 54°22' E 010°08'2 1.6
2015-Jul-25 20:33N 54°23' E 010°11'1010.1
2015-Jul-25 19:33N 54°31' E 010°21'1111.3
2015-Jul-25 18:33N 54°35' E 010°40'1212.1
2015-Jul-25 17:33N 54°36' E 011°01'1212.5
2015-Jul-25 16:33N 54°33' E 011°21'1212.3
2015-Jul-25 15:33N 54°28' E 011°41'1211.5
2015-Jul-25 14:33N 54°26' E 012°01'1111.1
2015-Jul-25 13:33N 54°33' E 012°16'5811.6
2015-Jul-25 08:32N 54°42' E 013°55'1612.8
2015-Jul-25 07:17N 54°38' E 014°22'1412.8
2015-Jul-25 06:09N 54°39' E 014°47'812.7
2015-Jul-25 05:32N 54°41' E 015°00'5512.5
2015-Jul-25 01:11N 54°49' E 016°34'812.5
2015-Jul-25 00:33N 54°50' E 016°47'1212.5
2015-Jul-24 23:33N 54°53' E 017°08'1312.4
2015-Jul-24 22:31N 54°55' E 017°30'1212.4
2015-Jul-24 21:33N 54°56' E 017°51'1212.3
2015-Jul-24 20:34N 54°56' E 018°12'1312.2
2015-Jul-24 19:32N 54°56' E 018°34'1212.3
2015-Jul-24 18:33N 54°53' E 018°54'1212.3
2015-Jul-24 17:33N 54°49' E 019°14'1212.2
2015-Jul-24 16:33N 54°45' E 019°35'1211.6
2015-Jul-24 15:32N 54°39' E 019°52'6 6.0
2015-Jul-24 14:33N 54°39' E 020°02'8 7.6
2015-Jul-24 13:31N 54°41' E 020°15'5 0.1
2015-Jul-23 02:31N 54°39' E 020°07'8 7.8
2015-Jul-23 01:33N 54°38' E 019°54'9 9.3
2015-Jul-23 00:33N 54°43' E 019°41'1110.7
2015-Jul-22 23:33N 54°53' E 019°33'3511.3
2015-Jul-22 20:25N 55°28' E 019°28'1211.4
2015-Jul-22 19:24N 55°40' E 019°26'  
Track history (hours):
 
Tides and Currents Weather Stations Pressure Air Temp Water Temp Dewpoint Dewpoint Depression Visibility Wind Speed Wind Dir Waves Ship Positions

Cyprus Cement

Last reported at 2015-Jul-30 13:31 UTC. Time now 2015-Jul-31 05:09 UTC.
Position N 55°35' E 015°17'.

Length 97 m; draft 7.2 m.

Type: Cargo ship. MMSI: 311988000.

Date/timePositionNaut miles runAvg speedWind from/ knotsBaromVisibWave heightAir tempDewpointWater temp
2015-Jul-30 13:31N 55°35' E 015°17'1111.8
2015-Jul-30 12:33N 55°30' E 014°59'1211.6
2015-Jul-30 11:34N 55°24' E 014°42'1111.0
2015-Jul-30 10:34N 55°16' E 014°29'1111.2
2015-Jul-30 09:34N 55°07' E 014°17'1110.9
2015-Jul-30 08:33N 55°00' E 014°02'1111.3
2015-Jul-30 07:33N 54°56' E 013°44'5611.0
2015-Jul-30 02:29N 54°32' E 012°17'9 9.9
2015-Jul-30 01:33N 54°24' E 012°08'1110.8
2015-Jul-30 00:33N 54°24' E 011°49'1111.0
2015-Jul-29 23:33N 54°29' E 011°32'1111.3
2015-Jul-29 22:33N 54°33' E 011°14'1110.6
2015-Jul-29 21:33N 54°34' E 010°56'1111.0
2015-Jul-29 20:34N 54°34' E 010°37'1111.2
2015-Jul-29 19:33N 54°30' E 010°19'10 9.8
2015-Jul-29 18:34N 54°22' E 010°09'2 1.6
2015-Jul-29 17:33N 54°22' E 010°06'7 7.4
2015-Jul-29 16:33N 54°21' E 009°54'7 7.0
2015-Jul-29 15:33N 54°19' E 009°43'7 7.5
2015-Jul-29 14:34N 54°13' E 009°35'8 8.4
2015-Jul-29 13:33N 54°09' E 009°22'8 7.6
2015-Jul-29 12:33N 54°02' E 009°18'8 7.9
2015-Jul-29 11:33N 53°55' E 009°11'3 2.7
2015-Jul-29 10:33N 53°53' E 009°08'1 0.9
2015-Jul-29 09:31N 53°53' E 009°06'0 0.0
2015-Jul-29 08:31N 53°53' E 009°06'2 1.9
2015-Jul-29 07:34N 53°52' E 009°03'1111.1
2015-Jul-29 06:34N 53°51' E 008°45'1211.7
2015-Jul-29 05:33N 53°58' E 008°29'1111.3
2015-Jul-29 04:33N 53°59' E 008°09'1212.0
2015-Jul-29 03:34N 53°57' E 007°49'1111.4
2015-Jul-29 02:34N 53°54' E 007°30'1111.0
2015-Jul-29 01:33N 53°52' E 007°12'1610.7
2015-Jul-29 00:04N 53°48' E 006°46'610.7
2015-Jul-28 23:33N 53°46' E 006°37'1010.1
2015-Jul-28 22:32N 53°41' E 006°23'9 9.1
2015-Jul-28 21:33N 53°36' E 006°35'1211.8
2015-Jul-28 20:34N 53°28' E 006°50'2 1.6
2015-Jul-28 19:29N 53°27' E 006°51'0 0.0
2015-Jul-28 18:32N 53°27' E 006°51'0 0.0
2015-Jul-28 17:32N 53°27' E 006°51'0 0.0
2015-Jul-28 16:32N 53°27' E 006°51'0 0.0
2015-Jul-28 15:32N 53°27' E 006°51'0 0.0
2015-Jul-28 14:32N 53°27' E 006°51'0 0.0
2015-Jul-28 13:32N 53°27' E 006°51'0 0.0
2015-Jul-28 12:32N 53°27' E 006°51'0 0.0
2015-Jul-28 11:32N 53°27' E 006°51'0 0.0
2015-Jul-28 10:32N 53°27' E 006°51'0 0.0
2015-Jul-28 09:29N 53°27' E 006°51'0 0.0
2015-Jul-28 08:32N 53°27' E 006°51'0 0.0
2015-Jul-28 07:29N 53°27' E 006°51'0 0.0
2015-Jul-28 06:29N 53°27' E 006°51'0 0.0
2015-Jul-28 05:32N 53°27' E 006°51'0 0.0
2015-Jul-28 04:32N 53°27' E 006°51'0 0.0
2015-Jul-28 03:26N 53°27' E 006°51'0 0.0
2015-Jul-28 02:32N 53°27' E 006°51'0 0.0
2015-Jul-28 01:29N 53°27' E 006°51'0 0.0
2015-Jul-28 00:32N 53°27' E 006°51'0 0.0
2015-Jul-27 23:32N 53°27' E 006°51'0 0.0
2015-Jul-27 22:32N 53°27' E 006°51'0 0.0
2015-Jul-27 21:29N 53°27' E 006°51'0 0.4
2015-Jul-27 20:34N 53°27' E 006°51'3 3.2
2015-Jul-27 19:33N 53°29' E 006°48'0 0.0
2015-Jul-27 18:33N 53°29' E 006°48'0 0.0
2015-Jul-27 17:33N 53°29' E 006°48'0 0.0
2015-Jul-27 16:33N 53°29' E 006°48'0 0.0
2015-Jul-27 15:33N 53°29' E 006°48'0 0.0
2015-Jul-27 14:30N 53°29' E 006°48'0 0.0
2015-Jul-27 13:33N 53°29' E 006°48'0 0.1
2015-Jul-27 12:33N 53°29' E 006°48'0 0.1
2015-Jul-27 11:33N 53°29' E 006°48'0 0.0
2015-Jul-27 10:33N 53°29' E 006°48'0 0.0
2015-Jul-27 09:33N 53°29' E 006°48'0 0.0
2015-Jul-27 08:33N 53°29' E 006°48'0 0.0
2015-Jul-27 07:33N 53°29' E 006°48'0 0.0
2015-Jul-27 06:33N 53°29' E 006°48'0 0.1
2015-Jul-27 05:33N 53°29' E 006°48'0 0.0
2015-Jul-27 04:33N 53°29' E 006°48'0 0.0
2015-Jul-27 03:33N 53°29' E 006°48'0 0.0
2015-Jul-27 02:33N 53°29' E 006°48'0 0.0
2015-Jul-27 01:33N 53°29' E 006°48'0 0.1
2015-Jul-27 00:33N 53°29' E 006°48'0 0.1
2015-Jul-26 23:33N 53°29' E 006°48'0 0.0
2015-Jul-26 22:33N 53°29' E 006°48'0 0.0
2015-Jul-26 21:33N 53°29' E 006°48'0 0.0
2015-Jul-26 20:33N 53°29' E 006°48'0 0.0
2015-Jul-26 19:33N 53°29' E 006°48'0 0.1
2015-Jul-26 18:33N 53°29' E 006°48'1 1.0
2015-Jul-26 17:34N 53°30' E 006°48'9 8.7
2015-Jul-26 16:33N 53°36' E 006°36'7 6.7
2015-Jul-26 15:33N 53°37' E 006°25'30 9.2
2015-Jul-26 12:17N 53°56' E 007°05'3 4.0
2015-Jul-26 11:34N 53°57' E 007°09'1111.4
2015-Jul-26 10:34N 53°60' E 007°28'1110.8
2015-Jul-26 09:33N 54°02' E 007°46'10 9.9
2015-Jul-26 08:33N 54°01' E 008°03'1211.0
2015-Jul-26 07:29N 53°59' E 008°23'1010.8
2015-Jul-26 06:34N 53°57' E 008°39'10 9.7
2015-Jul-26 05:33N 53°50' E 008°52'1010.1
2015-Jul-26 04:33N 53°53' E 009°09'3 2.7
2015-Jul-26 03:33N 53°55' E 009°12'8 8.3
2015-Jul-26 02:33N 54°03' E 009°18'8 7.9
2015-Jul-26 01:33N 54°10' E 009°24'8 8.4
2015-Jul-26 00:33N 54°14' E 009°36'7 7.2
2015-Jul-25 23:33N 54°20' E 009°44'7 7.4
2015-Jul-25 22:34N 54°20' E 009°56'7 7.2
2015-Jul-25 21:33N 54°22' E 010°08'2 1.6
2015-Jul-25 20:33N 54°23' E 010°11'1010.1
2015-Jul-25 19:33N 54°31' E 010°21'1111.3
2015-Jul-25 18:33N 54°35' E 010°40'1212.1
2015-Jul-25 17:33N 54°36' E 011°01'1212.5
2015-Jul-25 16:33N 54°33' E 011°21'1212.3
2015-Jul-25 15:33N 54°28' E 011°41'1211.5
2015-Jul-25 14:33N 54°26' E 012°01'1111.1
2015-Jul-25 13:33N 54°33' E 012°16'5811.6
2015-Jul-25 08:32N 54°42' E 013°55'1612.8
2015-Jul-25 07:17N 54°38' E 014°22'1412.8
2015-Jul-25 06:09N 54°39' E 014°47'812.7
2015-Jul-25 05:32N 54°41' E 015°00'5512.5
2015-Jul-25 01:11N 54°49' E 016°34'812.5
2015-Jul-25 00:33N 54°50' E 016°47'1212.5
2015-Jul-24 23:33N 54°53' E 017°08'1312.4
2015-Jul-24 22:31N 54°55' E 017°30'1212.4
2015-Jul-24 21:33N 54°56' E 017°51'1212.3
2015-Jul-24 20:34N 54°56' E 018°12'1312.2
2015-Jul-24 19:32N 54°56' E 018°34'1212.3
2015-Jul-24 18:33N 54°53' E 018°54'1212.3
2015-Jul-24 17:33N 54°49' E 019°14'1212.2
2015-Jul-24 16:33N 54°45' E 019°35'1211.6
2015-Jul-24 15:32N 54°39' E 019°52'6 6.0
2015-Jul-24 14:33N 54°39' E 020°02'8 7.6
2015-Jul-24 13:31N 54°41' E 020°15'5 0.1
2015-Jul-23 02:31N 54°39' E 020°07'8 7.8
2015-Jul-23 01:33N 54°38' E 019°54'9 9.3
2015-Jul-23 00:33N 54°43' E 019°41'1110.7
2015-Jul-22 23:33N 54°53' E 019°33'3511.3
2015-Jul-22 20:25N 55°28' E 019°28'1211.4
2015-Jul-22 19:24N 55°40' E 019°26'  

Dump ship's entire track history